sensor_id;sensor_type;location;lat;lon;timestamp;P1;durP1;ratioP1;P2;durP2;ratioP2
47812;SDS011;34221;45.296;9.516;2023-08-20T00:00:02;19.63;;;16.70;;
47812;SDS011;34221;45.296;9.516;2023-08-20T00:00:26;19.58;;;16.48;;
47812;SDS011;34221;45.296;9.516;2023-08-20T00:00:41;19.13;;;16.85;;
47812;SDS011;34221;45.296;9.516;2023-08-20T00:00:57;19.58;;;17.48;;
47812;SDS011;34221;45.296;9.516;2023-08-20T00:01:13;20.42;;;17.13;;
47812;SDS011;34221;45.296;9.516;2023-08-20T00:01:31;19.55;;;16.90;;
47812;SDS011;34221;45.296;9.516;2023-08-20T00:01:46;19.42;;;17.30;;
47812;SDS011;34221;45.296;9.516;2023-08-20T00:02:04;20.42;;;17.33;;
47812;SDS011;34221;45.296;9.516;2023-08-20T00:02:23;19.13;;;16.67;;
47812;SDS011;34221;45.296;9.516;2023-08-20T00:02:41;19.10;;;16.77;;
47812;SDS011;34221;45.296;9.516;2023-08-20T00:03:18;19.30;;;16.85;;
47812;SDS011;34221;45.296;9.516;2023-08-20T00:03:32;19.90;;;17.63;;
47812;SDS011;34221;45.296;9.516;2023-08-20T00:03:47;19.10;;;16.60;;
47812;SDS011;34221;45.296;9.516;2023-08-20T00:04:02;19.58;;;16.70;;
47812;SDS011;34221;45.296;9.516;2023-08-20T00:04:17;20.30;;;17.65;;
47812;SDS011;34221;45.296;9.516;2023-08-20T00:04:33;20.77;;;17.50;;
47812;SDS011;34221;45.296;9.516;2023-08-20T00:04:50;20.42;;;16.77;;
47812;SDS011;34221;45.296;9.516;2023-08-20T00:05:07;20.88;;;17.08;;
47812;SDS011;34221;45.296;9.516;2023-08-20T00:05:23;21.27;;;16.88;;
47812;SDS011;34221;45.296;9.516;2023-08-20T00:05:38;20.13;;;16.55;;
47812;SDS011;34221;45.296;9.516;2023-08-20T00:05:53;20.30;;;16.77;;
47812;SDS011;34221;45.296;9.516;2023-08-20T00:06:09;19.30;;;16.13;;
47812;SDS011;34221;45.296;9.516;2023-08-20T00:06:24;18.92;;;16.05;;
47812;SDS011;34221;45.296;9.516;2023-08-20T00:06:39;19.13;;;16.55;;
47812;SDS011;34221;45.296;9.516;2023-08-20T00:06:54;17.83;;;15.90;;
47812;SDS011;34221;45.296;9.516;2023-08-20T00:07:09;18.50;;;15.75;;
47812;SDS011;34221;45.296;9.516;2023-08-20T00:07:24;19.08;;;16.08;;
47812;SDS011;34221;45.296;9.516;2023-08-20T00:07:39;17.52;;;15.50;;
47812;SDS011;34221;45.296;9.516;2023-08-20T00:07:54;17.42;;;15.52;;
47812;SDS011;34221;45.296;9.516;2023-08-20T00:08:09;17.20;;;15.40;;
47812;SDS011;34221;45.296;9.516;2023-08-20T00:08:23;17.80;;;15.75;;
47812;SDS011;34221;45.296;9.516;2023-08-20T00:08:38;19.30;;;16.00;;
47812;SDS011;34221;45.296;9.516;2023-08-20T00:08:53;18.77;;;16.20;;
47812;SDS011;34221;45.296;9.516;2023-08-20T00:09:08;19.17;;;17.05;;
47812;SDS011;34221;45.296;9.516;2023-08-20T00:09:22;20.05;;;17.13;;
47812;SDS011;34221;45.296;9.516;2023-08-20T00:09:38;20.23;;;16.75;;
47812;SDS011;34221;45.296;9.516;2023-08-20T00:09:53;19.33;;;16.10;;
47812;SDS011;34221;45.296;9.516;2023-08-20T00:10:08;17.85;;;15.55;;
47812;SDS011;34221;45.296;9.516;2023-08-20T00:10:23;17.85;;;15.63;;
47812;SDS011;34221;45.296;9.516;2023-08-20T00:10:38;21.07;;;16.17;;
47812;SDS011;34221;45.296;9.516;2023-08-20T00:10:53;21.23;;;16.20;;
47812;SDS011;34221;45.296;9.516;2023-08-20T00:11:07;18.92;;;16.55;;
47812;SDS011;34221;45.296;9.516;2023-08-20T00:11:22;19.90;;;16.85;;
47812;SDS011;34221;45.296;9.516;2023-08-20T00:12:12;19.30;;;16.90;;
47812;SDS011;34221;45.296;9.516;2023-08-20T00:12:27;17.73;;;15.80;;
47812;SDS011;34221;45.296;9.516;2023-08-20T00:12:42;17.83;;;15.93;;
47812;SDS011;34221;45.296;9.516;2023-08-20T00:12:57;19.50;;;17.15;;
47812;SDS011;34221;45.296;9.516;2023-08-20T00:13:12;18.90;;;16.67;;
47812;SDS011;34221;45.296;9.516;2023-08-20T00:13:27;18.17;;;16.17;;
47812;SDS011;34221;45.296;9.516;2023-08-20T00:13:42;18.55;;;15.93;;
47812;SDS011;34221;45.296;9.516;2023-08-20T00:13:57;19.55;;;15.85;;
47812;SDS011;34221;45.296;9.516;2023-08-20T00:14:14;20.05;;;16.05;;
47812;SDS011;34221;45.296;9.516;2023-08-20T00:14:51;18.33;;;15.85;;
47812;SDS011;34221;45.296;9.516;2023-08-20T00:15:10;19.02;;;16.10;;
47812;SDS011;34221;45.296;9.516;2023-08-20T00:15:25;17.93;;;15.87;;
47812;SDS011;34221;45.296;9.516;2023-08-20T00:15:43;18.52;;;16.55;;
47812;SDS011;34221;45.296;9.516;2023-08-20T00:15:58;18.30;;;15.88;;
47812;SDS011;34221;45.296;9.516;2023-08-20T00:16:13;18.10;;;15.10;;
47812;SDS011;34221;45.296;9.516;2023-08-20T00:16:28;18.15;;;15.35;;
47812;SDS011;34221;45.296;9.516;2023-08-20T00:16:44;17.63;;;15.73;;
47812;SDS011;34221;45.296;9.516;2023-08-20T00:17:00;18.88;;;16.15;;
47812;SDS011;34221;45.296;9.516;2023-08-20T00:17:15;19.27;;;16.23;;
47812;SDS011;34221;45.296;9.516;2023-08-20T00:17:30;17.60;;;15.23;;
47812;SDS011;34221;45.296;9.516;2023-08-20T00:17:45;17.58;;;14.77;;
47812;SDS011;34221;45.296;9.516;2023-08-20T00:18:01;18.33;;;15.32;;
47812;SDS011;34221;45.296;9.516;2023-08-20T00:18:16;18.30;;;15.30;;
47812;SDS011;34221;45.296;9.516;2023-08-20T00:18:31;17.92;;;15.13;;
47812;SDS011;34221;45.296;9.516;2023-08-20T00:18:47;18.80;;;15.75;;
47812;SDS011;34221;45.296;9.516;2023-08-20T00:19:01;19.17;;;15.80;;
47812;SDS011;34221;45.296;9.516;2023-08-20T00:19:18;19.00;;;16.55;;
47812;SDS011;34221;45.296;9.516;2023-08-20T00:19:33;19.90;;;17.40;;
47812;SDS011;34221;45.296;9.516;2023-08-20T00:19:48;19.88;;;17.10;;
47812;SDS011;34221;45.296;9.516;2023-08-20T00:20:04;21.13;;;16.95;;
47812;SDS011;34221;45.296;9.516;2023-08-20T00:20:24;20.60;;;16.27;;
47812;SDS011;34221;45.296;9.516;2023-08-20T00:20:39;17.58;;;15.65;;
47812;SDS011;34221;45.296;9.516;2023-08-20T00:20:54;18.85;;;15.98;;
47812;SDS011;34221;45.296;9.516;2023-08-20T00:21:10;19.63;;;16.05;;
47812;SDS011;34221;45.296;9.516;2023-08-20T00:21:25;18.85;;;15.98;;
47812;SDS011;34221;45.296;9.516;2023-08-20T00:21:42;18.75;;;16.20;;
47812;SDS011;34221;45.296;9.516;2023-08-20T00:21:58;18.25;;;15.95;;
47812;SDS011;34221;45.296;9.516;2023-08-20T00:22:13;18.33;;;15.52;;
47812;SDS011;34221;45.296;9.516;2023-08-20T00:22:29;19.17;;;15.65;;
47812;SDS011;34221;45.296;9.516;2023-08-20T00:22:44;19.80;;;16.40;;
47812;SDS011;34221;45.296;9.516;2023-08-20T00:22:59;19.38;;;16.40;;
47812;SDS011;34221;45.296;9.516;2023-08-20T00:23:14;19.25;;;16.40;;
47812;SDS011;34221;45.296;9.516;2023-08-20T00:23:29;18.88;;;16.45;;
47812;SDS011;34221;45.296;9.516;2023-08-20T00:23:44;18.13;;;15.93;;
47812;SDS011;34221;45.296;9.516;2023-08-20T00:23:59;17.58;;;15.13;;
47812;SDS011;34221;45.296;9.516;2023-08-20T00:24:14;17.27;;;15.25;;
47812;SDS011;34221;45.296;9.516;2023-08-20T00:24:29;17.27;;;15.43;;
47812;SDS011;34221;45.296;9.516;2023-08-20T00:24:44;16.58;;;14.75;;
47812;SDS011;34221;45.296;9.516;2023-08-20T00:24:59;16.75;;;14.95;;
47812;SDS011;34221;45.296;9.516;2023-08-20T00:25:15;17.52;;;15.65;;
47812;SDS011;34221;45.296;9.516;2023-08-20T00:25:31;18.13;;;16.23;;
47812;SDS011;34221;45.296;9.516;2023-08-20T00:25:46;18.98;;;16.65;;
47812;SDS011;34221;45.296;9.516;2023-08-20T00:26:01;20.58;;;17.48;;
47812;SDS011;34221;45.296;9.516;2023-08-20T00:26:16;19.00;;;16.88;;
47812;SDS011;34221;45.296;9.516;2023-08-20T00:26:31;17.95;;;15.95;;
47812;SDS011;34221;45.296;9.516;2023-08-20T00:26:47;17.70;;;15.63;;
47812;SDS011;34221;45.296;9.516;2023-08-20T00:27:02;20.05;;;15.70;;
47812;SDS011;34221;45.296;9.516;2023-08-20T00:27:17;20.80;;;16.23;;
47812;SDS011;34221;45.296;9.516;2023-08-20T00:27:32;19.02;;;16.02;;
47812;SDS011;34221;45.296;9.516;2023-08-20T00:27:47;18.10;;;15.35;;
47812;SDS011;34221;45.296;9.516;2023-08-20T00:28:02;18.07;;;15.90;;
47812;SDS011;34221;45.296;9.516;2023-08-20T00:28:18;20.13;;;16.25;;
47812;SDS011;34221;45.296;9.516;2023-08-20T00:28:34;19.92;;;15.70;;
47812;SDS011;34221;45.296;9.516;2023-08-20T00:28:51;19.02;;;15.88;;
47812;SDS011;34221;45.296;9.516;2023-08-20T00:29:06;19.92;;;15.95;;
47812;SDS011;34221;45.296;9.516;2023-08-20T00:29:21;19.05;;;15.48;;
47812;SDS011;34221;45.296;9.516;2023-08-20T00:29:36;18.05;;;15.13;;
47812;SDS011;34221;45.296;9.516;2023-08-20T00:29:50;18.13;;;15.37;;
47812;SDS011;34221;45.296;9.516;2023-08-20T00:30:05;18.40;;;15.63;;
47812;SDS011;34221;45.296;9.516;2023-08-20T00:30:21;19.13;;;15.88;;
47812;SDS011;34221;45.296;9.516;2023-08-20T00:30:36;18.95;;;15.60;;
47812;SDS011;34221;45.296;9.516;2023-08-20T00:30:51;18.00;;;15.43;;
47812;SDS011;34221;45.296;9.516;2023-08-20T00:31:06;17.30;;;15.50;;
47812;SDS011;34221;45.296;9.516;2023-08-20T00:31:21;17.02;;;15.23;;
47812;SDS011;34221;45.296;9.516;2023-08-20T00:31:35;17.42;;;15.02;;
47812;SDS011;34221;45.296;9.516;2023-08-20T00:31:50;18.75;;;15.27;;
47812;SDS011;34221;45.296;9.516;2023-08-20T00:32:05;19.47;;;15.63;;
47812;SDS011;34221;45.296;9.516;2023-08-20T00:32:20;19.05;;;15.70;;
47812;SDS011;34221;45.296;9.516;2023-08-20T00:32:36;18.02;;;16.05;;
47812;SDS011;34221;45.296;9.516;2023-08-20T00:32:51;18.13;;;16.23;;
47812;SDS011;34221;45.296;9.516;2023-08-20T00:33:07;17.55;;;15.35;;
47812;SDS011;34221;45.296;9.516;2023-08-20T00:33:22;18.88;;;15.48;;
47812;SDS011;34221;45.296;9.516;2023-08-20T00:33:37;18.30;;;16.17;;
47812;SDS011;34221;45.296;9.516;2023-08-20T00:33:52;18.52;;;16.58;;
47812;SDS011;34221;45.296;9.516;2023-08-20T00:34:08;19.77;;;17.13;;
47812;SDS011;34221;45.296;9.516;2023-08-20T00:34:24;18.85;;;16.33;;
47812;SDS011;34221;45.296;9.516;2023-08-20T00:35:19;17.10;;;15.07;;
47812;SDS011;34221;45.296;9.516;2023-08-20T00:35:34;17.10;;;14.73;;
47812;SDS011;34221;45.296;9.516;2023-08-20T00:35:49;17.50;;;14.93;;
47812;SDS011;34221;45.296;9.516;2023-08-20T00:36:04;16.60;;;14.77;;
47812;SDS011;34221;45.296;9.516;2023-08-20T00:36:20;17.33;;;14.88;;
47812;SDS011;34221;45.296;9.516;2023-08-20T00:36:35;17.50;;;15.02;;
47812;SDS011;34221;45.296;9.516;2023-08-20T00:36:49;16.85;;;14.60;;
47812;SDS011;34221;45.296;9.516;2023-08-20T00:37:23;17.15;;;15.00;;
47812;SDS011;34221;45.296;9.516;2023-08-20T00:37:38;17.05;;;14.80;;
47812;SDS011;34221;45.296;9.516;2023-08-20T00:37:52;18.58;;;16.35;;
47812;SDS011;34221;45.296;9.516;2023-08-20T00:38:07;20.42;;;16.23;;
47812;SDS011;34221;45.296;9.516;2023-08-20T00:38:22;20.08;;;15.63;;
47812;SDS011;34221;45.296;9.516;2023-08-20T00:38:37;16.98;;;15.15;;
47812;SDS011;34221;45.296;9.516;2023-08-20T00:38:51;16.23;;;14.30;;
47812;SDS011;34221;45.296;9.516;2023-08-20T00:39:06;17.55;;;15.30;;
47812;SDS011;34221;45.296;9.516;2023-08-20T00:39:21;18.00;;;15.88;;
47812;SDS011;34221;45.296;9.516;2023-08-20T00:39:36;18.52;;;15.73;;
47812;SDS011;34221;45.296;9.516;2023-08-20T00:39:51;17.88;;;15.52;;
47812;SDS011;34221;45.296;9.516;2023-08-20T00:40:05;18.45;;;15.25;;
47812;SDS011;34221;45.296;9.516;2023-08-20T00:40:21;19.63;;;15.80;;
47812;SDS011;34221;45.296;9.516;2023-08-20T00:40:36;18.42;;;15.85;;
47812;SDS011;34221;45.296;9.516;2023-08-20T00:40:50;18.05;;;15.43;;
47812;SDS011;34221;45.296;9.516;2023-08-20T00:41:05;19.15;;;15.68;;
47812;SDS011;34221;45.296;9.516;2023-08-20T00:41:20;19.80;;;16.13;;
47812;SDS011;34221;45.296;9.516;2023-08-20T00:41:35;19.40;;;16.13;;
47812;SDS011;34221;45.296;9.516;2023-08-20T00:41:49;18.70;;;15.75;;
47812;SDS011;34221;45.296;9.516;2023-08-20T00:42:04;18.65;;;15.65;;
47812;SDS011;34221;45.296;9.516;2023-08-20T00:42:19;19.13;;;16.08;;
47812;SDS011;34221;45.296;9.516;2023-08-20T00:42:34;20.23;;;16.75;;
47812;SDS011;34221;45.296;9.516;2023-08-20T00:42:49;20.53;;;16.73;;
47812;SDS011;34221;45.296;9.516;2023-08-20T00:43:03;18.98;;;15.93;;
47812;SDS011;34221;45.296;9.516;2023-08-20T00:43:18;17.85;;;15.00;;
47812;SDS011;34221;45.296;9.516;2023-08-20T00:43:33;17.65;;;14.80;;
47812;SDS011;34221;45.296;9.516;2023-08-20T00:43:48;16.92;;;14.60;;
47812;SDS011;34221;45.296;9.516;2023-08-20T00:44:03;17.40;;;14.67;;
47812;SDS011;34221;45.296;9.516;2023-08-20T00:44:17;18.13;;;15.07;;
47812;SDS011;34221;45.296;9.516;2023-08-20T00:44:32;18.17;;;15.27;;
47812;SDS011;34221;45.296;9.516;2023-08-20T00:44:49;17.23;;;15.27;;
47812;SDS011;34221;45.296;9.516;2023-08-20T00:45:04;17.10;;;15.30;;
47812;SDS011;34221;45.296;9.516;2023-08-20T00:45:19;18.70;;;15.57;;
47812;SDS011;34221;45.296;9.516;2023-08-20T00:45:34;19.00;;;15.70;;
47812;SDS011;34221;45.296;9.516;2023-08-20T00:45:48;16.45;;;14.57;;
47812;SDS011;34221;45.296;9.516;2023-08-20T00:46:03;16.00;;;14.15;;
47812;SDS011;34221;45.296;9.516;2023-08-20T00:46:19;16.30;;;14.55;;
47812;SDS011;34221;45.296;9.516;2023-08-20T00:46:33;15.95;;;14.25;;
47812;SDS011;34221;45.296;9.516;2023-08-20T00:46:48;16.45;;;14.48;;
47812;SDS011;34221;45.296;9.516;2023-08-20T00:47:04;16.67;;;14.88;;
47812;SDS011;34221;45.296;9.516;2023-08-20T00:47:19;16.88;;;15.00;;
47812;SDS011;34221;45.296;9.516;2023-08-20T00:47:35;17.85;;;15.30;;
47812;SDS011;34221;45.296;9.516;2023-08-20T00:47:50;19.10;;;15.13;;
47812;SDS011;34221;45.296;9.516;2023-08-20T00:48:05;18.15;;;14.52;;
47812;SDS011;34221;45.296;9.516;2023-08-20T00:48:20;15.65;;;13.85;;
47812;SDS011;34221;45.296;9.516;2023-08-20T00:48:35;15.77;;;14.07;;
47812;SDS011;34221;45.296;9.516;2023-08-20T00:48:50;16.27;;;14.50;;
47812;SDS011;34221;45.296;9.516;2023-08-20T00:49:05;18.25;;;15.35;;
47812;SDS011;34221;45.296;9.516;2023-08-20T00:49:20;20.00;;;15.88;;
47812;SDS011;34221;45.296;9.516;2023-08-20T00:49:35;19.38;;;15.63;;
47812;SDS011;34221;45.296;9.516;2023-08-20T00:49:51;18.30;;;15.60;;
47812;SDS011;34221;45.296;9.516;2023-08-20T00:50:07;17.42;;;15.07;;
47812;SDS011;34221;45.296;9.516;2023-08-20T00:50:23;17.52;;;15.13;;
47812;SDS011;34221;45.296;9.516;2023-08-20T00:50:38;16.98;;;14.77;;
47812;SDS011;34221;45.296;9.516;2023-08-20T00:50:54;16.73;;;14.75;;
47812;SDS011;34221;45.296;9.516;2023-08-20T00:51:09;18.77;;;15.27;;
47812;SDS011;34221;45.296;9.516;2023-08-20T00:51:24;20.08;;;15.73;;
47812;SDS011;34221;45.296;9.516;2023-08-20T00:51:39;17.92;;;15.30;;
47812;SDS011;34221;45.296;9.516;2023-08-20T00:51:54;16.77;;;14.85;;
47812;SDS011;34221;45.296;9.516;2023-08-20T00:52:10;17.67;;;15.38;;
47812;SDS011;34221;45.296;9.516;2023-08-20T00:52:26;18.38;;;15.60;;
47812;SDS011;34221;45.296;9.516;2023-08-20T00:52:41;18.02;;;15.13;;
47812;SDS011;34221;45.296;9.516;2023-08-20T00:52:57;18.10;;;15.45;;
47812;SDS011;34221;45.296;9.516;2023-08-20T00:53:12;18.67;;;16.08;;
47812;SDS011;34221;45.296;9.516;2023-08-20T00:53:28;18.88;;;16.33;;
47812;SDS011;34221;45.296;9.516;2023-08-20T00:53:43;17.77;;;15.70;;
47812;SDS011;34221;45.296;9.516;2023-08-20T00:53:58;16.70;;;14.90;;
47812;SDS011;34221;45.296;9.516;2023-08-20T00:54:14;17.05;;;15.23;;
47812;SDS011;34221;45.296;9.516;2023-08-20T00:54:29;17.10;;;15.27;;
47812;SDS011;34221;45.296;9.516;2023-08-20T00:54:47;15.68;;;14.00;;
47812;SDS011;34221;45.296;9.516;2023-08-20T00:55:05;16.88;;;14.73;;
47812;SDS011;34221;45.296;9.516;2023-08-20T00:55:24;18.13;;;15.80;;
47812;SDS011;34221;45.296;9.516;2023-08-20T00:55:40;17.93;;;15.33;;
47812;SDS011;34221;45.296;9.516;2023-08-20T00:55:57;16.90;;;15.10;;
47812;SDS011;34221;45.296;9.516;2023-08-20T00:56:12;17.05;;;15.13;;
47812;SDS011;34221;45.296;9.516;2023-08-20T00:56:27;18.17;;;15.18;;
47812;SDS011;34221;45.296;9.516;2023-08-20T00:56:42;18.30;;;14.97;;
47812;SDS011;34221;45.296;9.516;2023-08-20T00:56:58;16.98;;;14.40;;
47812;SDS011;34221;45.296;9.516;2023-08-20T00:57:16;17.30;;;14.55;;
47812;SDS011;34221;45.296;9.516;2023-08-20T00:57:33;19.38;;;15.48;;
47812;SDS011;34221;45.296;9.516;2023-08-20T00:57:49;17.20;;;15.02;;
47812;SDS011;34221;45.296;9.516;2023-08-20T00:58:04;16.20;;;14.50;;
47812;SDS011;34221;45.296;9.516;2023-08-20T00:58:21;17.05;;;15.05;;
47812;SDS011;34221;45.296;9.516;2023-08-20T00:58:35;18.15;;;15.30;;
47812;SDS011;34221;45.296;9.516;2023-08-20T00:58:50;17.20;;;14.70;;
47812;SDS011;34221;45.296;9.516;2023-08-20T00:59:09;17.05;;;15.23;;
47812;SDS011;34221;45.296;9.516;2023-08-20T00:59:24;17.60;;;15.57;;
47812;SDS011;34221;45.296;9.516;2023-08-20T00:59:39;17.25;;;15.15;;
47812;SDS011;34221;45.296;9.516;2023-08-20T00:59:55;17.38;;;15.23;;
47812;SDS011;34221;45.296;9.516;2023-08-20T01:00:11;18.27;;;15.20;;
47812;SDS011;34221;45.296;9.516;2023-08-20T01:00:26;17.73;;;14.65;;
47812;SDS011;34221;45.296;9.516;2023-08-20T01:00:42;16.58;;;14.60;;
47812;SDS011;34221;45.296;9.516;2023-08-20T01:00:57;17.15;;;15.15;;
47812;SDS011;34221;45.296;9.516;2023-08-20T01:01:11;18.25;;;15.57;;
47812;SDS011;34221;45.296;9.516;2023-08-20T01:01:26;17.10;;;15.23;;
47812;SDS011;34221;45.296;9.516;2023-08-20T01:01:41;16.43;;;14.73;;
47812;SDS011;34221;45.296;9.516;2023-08-20T01:01:56;17.58;;;15.00;;
47812;SDS011;34221;45.296;9.516;2023-08-20T01:02:12;17.67;;;15.45;;
47812;SDS011;34221;45.296;9.516;2023-08-20T01:02:27;16.85;;;15.05;;
47812;SDS011;34221;45.296;9.516;2023-08-20T01:02:42;16.93;;;14.77;;
47812;SDS011;34221;45.296;9.516;2023-08-20T01:02:57;17.95;;;15.32;;
47812;SDS011;34221;45.296;9.516;2023-08-20T01:03:11;19.13;;;15.38;;
47812;SDS011;34221;45.296;9.516;2023-08-20T01:03:26;19.10;;;15.48;;
47812;SDS011;34221;45.296;9.516;2023-08-20T01:03:42;18.13;;;15.60;;
47812;SDS011;34221;45.296;9.516;2023-08-20T01:03:57;17.42;;;15.00;;
47812;SDS011;34221;45.296;9.516;2023-08-20T01:04:12;17.00;;;14.80;;
47812;SDS011;34221;45.296;9.516;2023-08-20T01:04:28;17.63;;;14.87;;
47812;SDS011;34221;45.296;9.516;2023-08-20T01:04:45;17.50;;;14.68;;
47812;SDS011;34221;45.296;9.516;2023-08-20T01:05:01;16.48;;;13.98;;
47812;SDS011;34221;45.296;9.516;2023-08-20T01:05:17;18.27;;;15.05;;
47812;SDS011;34221;45.296;9.516;2023-08-20T01:05:33;18.20;;;15.50;;
47812;SDS011;34221;45.296;9.516;2023-08-20T01:06:01;17.67;;;14.75;;
47812;SDS011;34221;45.296;9.516;2023-08-20T01:06:32;16.23;;;13.52;;
47812;SDS011;34221;45.296;9.516;2023-08-20T01:08:40;16.25;;;14.38;;
47812;SDS011;34221;45.296;9.516;2023-08-20T01:09:01;18.00;;;15.13;;
47812;SDS011;34221;45.296;9.516;2023-08-20T01:09:50;14.90;;;13.30;;
47812;SDS011;34221;45.296;9.516;2023-08-20T01:11:21;18.42;;;15.13;;
47812;SDS011;34221;45.296;9.516;2023-08-20T01:11:45;17.08;;;14.48;;
47812;SDS011;34221;45.296;9.516;2023-08-20T01:12:04;15.88;;;13.57;;
47812;SDS011;34221;45.296;9.516;2023-08-20T01:12:21;15.77;;;13.15;;
47812;SDS011;34221;45.296;9.516;2023-08-20T01:12:37;15.73;;;13.20;;
47812;SDS011;34221;45.296;9.516;2023-08-20T01:12:53;15.55;;;13.30;;
47812;SDS011;34221;45.296;9.516;2023-08-20T01:13:09;15.98;;;14.07;;
47812;SDS011;34221;45.296;9.516;2023-08-20T01:13:24;16.50;;;14.70;;
47812;SDS011;34221;45.296;9.516;2023-08-20T01:13:39;16.15;;;14.40;;
47812;SDS011;34221;45.296;9.516;2023-08-20T01:13:55;16.40;;;13.88;;
47812;SDS011;34221;45.296;9.516;2023-08-20T01:14:16;16.50;;;13.90;;
47812;SDS011;34221;45.296;9.516;2023-08-20T01:14:31;19.65;;;14.57;;
47812;SDS011;34221;45.296;9.516;2023-08-20T01:14:46;18.02;;;14.30;;
47812;SDS011;34221;45.296;9.516;2023-08-20T01:15:01;17.52;;;14.48;;
47812;SDS011;34221;45.296;9.516;2023-08-20T01:15:16;17.58;;;15.07;;
47812;SDS011;34221;45.296;9.516;2023-08-20T01:15:31;16.27;;;14.40;;
47812;SDS011;34221;45.296;9.516;2023-08-20T01:15:46;17.42;;;14.57;;
47812;SDS011;34221;45.296;9.516;2023-08-20T01:16:01;18.00;;;14.93;;
47812;SDS011;34221;45.296;9.516;2023-08-20T01:16:15;16.45;;;14.48;;
47812;SDS011;34221;45.296;9.516;2023-08-20T01:16:30;16.65;;;14.85;;
47812;SDS011;34221;45.296;9.516;2023-08-20T01:16:45;17.27;;;14.80;;
47812;SDS011;34221;45.296;9.516;2023-08-20T01:17:00;19.42;;;14.60;;
47812;SDS011;34221;45.296;9.516;2023-08-20T01:17:14;19.33;;;14.57;;
47812;SDS011;34221;45.296;9.516;2023-08-20T01:17:29;17.33;;;14.20;;
47812;SDS011;34221;45.296;9.516;2023-08-20T01:17:47;16.13;;;14.10;;
47812;SDS011;34221;45.296;9.516;2023-08-20T01:18:02;16.98;;;14.63;;
47812;SDS011;34221;45.296;9.516;2023-08-20T01:18:17;18.85;;;15.05;;
47812;SDS011;34221;45.296;9.516;2023-08-20T01:18:32;18.23;;;15.38;;
47812;SDS011;34221;45.296;9.516;2023-08-20T01:18:47;16.98;;;14.90;;
47812;SDS011;34221;45.296;9.516;2023-08-20T01:19:03;17.30;;;14.57;;
47812;SDS011;34221;45.296;9.516;2023-08-20T01:19:19;20.25;;;15.32;;
47812;SDS011;34221;45.296;9.516;2023-08-20T01:19:35;19.30;;;15.45;;
47812;SDS011;34221;45.296;9.516;2023-08-20T01:19:51;17.23;;;15.38;;
47812;SDS011;34221;45.296;9.516;2023-08-20T01:20:07;17.45;;;15.18;;
47812;SDS011;34221;45.296;9.516;2023-08-20T01:20:27;18.27;;;15.02;;
47812;SDS011;34221;45.296;9.516;2023-08-20T01:20:47;18.98;;;15.27;;
47812;SDS011;34221;45.296;9.516;2023-08-20T01:21:20;20.40;;;15.63;;
47812;SDS011;34221;45.296;9.516;2023-08-20T01:21:47;17.98;;;15.68;;
47812;SDS011;34221;45.296;9.516;2023-08-20T01:25:30;16.45;;;13.98;;
47812;SDS011;34221;45.296;9.516;2023-08-20T01:26:06;18.88;;;14.20;;
47812;SDS011;34221;45.296;9.516;2023-08-20T01:27:10;18.13;;;14.63;;
47812;SDS011;34221;45.296;9.516;2023-08-20T01:28:32;17.25;;;14.43;;
47812;SDS011;34221;45.296;9.516;2023-08-20T01:28:48;16.60;;;14.52;;
47812;SDS011;34221;45.296;9.516;2023-08-20T01:29:05;16.35;;;14.35;;
47812;SDS011;34221;45.296;9.516;2023-08-20T01:29:20;16.05;;;13.68;;
47812;SDS011;34221;45.296;9.516;2023-08-20T01:29:35;15.95;;;13.90;;
47812;SDS011;34221;45.296;9.516;2023-08-20T01:29:51;17.13;;;14.52;;
47812;SDS011;34221;45.296;9.516;2023-08-20T01:30:06;19.27;;;14.32;;
47812;SDS011;34221;45.296;9.516;2023-08-20T01:30:22;18.38;;;14.20;;
47812;SDS011;34221;45.296;9.516;2023-08-20T01:30:39;16.83;;;14.43;;
47812;SDS011;34221;45.296;9.516;2023-08-20T01:31:28;15.73;;;13.80;;
47812;SDS011;34221;45.296;9.516;2023-08-20T01:31:44;16.98;;;13.80;;
47812;SDS011;34221;45.296;9.516;2023-08-20T01:31:59;17.90;;;14.13;;
47812;SDS011;34221;45.296;9.516;2023-08-20T01:32:14;15.98;;;13.45;;
47812;SDS011;34221;45.296;9.516;2023-08-20T01:32:30;15.70;;;13.55;;
47812;SDS011;34221;45.296;9.516;2023-08-20T01:32:46;16.75;;;14.18;;
47812;SDS011;34221;45.296;9.516;2023-08-20T01:33:03;16.13;;;14.13;;
47812;SDS011;34221;45.296;9.516;2023-08-20T01:33:19;16.40;;;14.20;;
47812;SDS011;34221;45.296;9.516;2023-08-20T01:33:34;16.95;;;13.90;;
47812;SDS011;34221;45.296;9.516;2023-08-20T01:33:49;17.17;;;13.52;;
47812;SDS011;34221;45.296;9.516;2023-08-20T01:34:04;16.85;;;13.77;;
47812;SDS011;34221;45.296;9.516;2023-08-20T01:34:19;16.67;;;13.82;;
47812;SDS011;34221;45.296;9.516;2023-08-20T01:34:34;16.25;;;13.77;;
47812;SDS011;34221;45.296;9.516;2023-08-20T01:34:49;16.97;;;14.37;;
47812;SDS011;34221;45.296;9.516;2023-08-20T01:35:04;17.67;;;14.73;;
47812;SDS011;34221;45.296;9.516;2023-08-20T01:35:20;16.67;;;14.75;;
47812;SDS011;34221;45.296;9.516;2023-08-20T01:35:53;15.27;;;13.65;;
47812;SDS011;34221;45.296;9.516;2023-08-20T01:36:08;15.20;;;13.55;;
47812;SDS011;34221;45.296;9.516;2023-08-20T01:36:28;15.48;;;13.73;;
47812;SDS011;34221;45.296;9.516;2023-08-20T01:36:43;16.35;;;13.95;;
47812;SDS011;34221;45.296;9.516;2023-08-20T01:36:58;16.13;;;13.68;;
47812;SDS011;34221;45.296;9.516;2023-08-20T01:37:13;16.80;;;13.70;;
47812;SDS011;34221;45.296;9.516;2023-08-20T01:37:28;16.77;;;13.55;;
47812;SDS011;34221;45.296;9.516;2023-08-20T01:37:43;17.13;;;14.18;;
47812;SDS011;34221;45.296;9.516;2023-08-20T01:37:58;17.98;;;14.85;;
47812;SDS011;34221;45.296;9.516;2023-08-20T01:38:13;16.63;;;14.25;;
47812;SDS011;34221;45.296;9.516;2023-08-20T01:38:28;16.50;;;13.85;;
47812;SDS011;34221;45.296;9.516;2023-08-20T01:38:43;15.88;;;13.90;;
47812;SDS011;34221;45.296;9.516;2023-08-20T01:38:58;16.27;;;14.27;;
47812;SDS011;34221;45.296;9.516;2023-08-20T01:39:12;16.40;;;14.25;;
47812;SDS011;34221;45.296;9.516;2023-08-20T01:39:28;16.35;;;13.80;;
47812;SDS011;34221;45.296;9.516;2023-08-20T01:39:42;15.97;;;13.80;;
47812;SDS011;34221;45.296;9.516;2023-08-20T01:39:57;15.43;;;13.30;;
47812;SDS011;34221;45.296;9.516;2023-08-20T01:40:12;15.63;;;12.90;;
47812;SDS011;34221;45.296;9.516;2023-08-20T01:40:27;16.00;;;13.82;;
47812;SDS011;34221;45.296;9.516;2023-08-20T01:40:41;16.98;;;13.77;;
47812;SDS011;34221;45.296;9.516;2023-08-20T01:40:56;17.38;;;13.68;;
47812;SDS011;34221;45.296;9.516;2023-08-20T01:41:11;17.52;;;14.63;;
47812;SDS011;34221;45.296;9.516;2023-08-20T01:41:26;17.13;;;14.65;;
47812;SDS011;34221;45.296;9.516;2023-08-20T01:41:41;16.17;;;14.25;;
47812;SDS011;34221;45.296;9.516;2023-08-20T01:41:56;15.60;;;13.95;;
47812;SDS011;34221;45.296;9.516;2023-08-20T01:42:14;15.80;;;14.10;;
47812;SDS011;34221;45.296;9.516;2023-08-20T01:42:29;16.52;;;14.18;;
47812;SDS011;34221;45.296;9.516;2023-08-20T01:42:44;15.40;;;13.80;;
47812;SDS011;34221;45.296;9.516;2023-08-20T01:42:58;15.48;;;13.85;;
47812;SDS011;34221;45.296;9.516;2023-08-20T01:43:13;15.82;;;13.93;;
47812;SDS011;34221;45.296;9.516;2023-08-20T01:43:28;15.65;;;13.80;;
47812;SDS011;34221;45.296;9.516;2023-08-20T01:43:43;15.35;;;13.63;;
47812;SDS011;34221;45.296;9.516;2023-08-20T01:43:59;15.63;;;13.93;;